createdAt,value
2019-02-28T00:00:59.515Z,99.50
2019-02-28T00:03:27.671Z,99.50
2019-02-28T00:05:56.384Z,99.50
2019-02-28T00:08:25.053Z,99.60
2019-02-28T00:10:53.711Z,99.60
2019-02-28T00:13:22.557Z,99.50
2019-02-28T00:15:50.483Z,99.50
2019-02-28T00:18:18.762Z,99.40
2019-02-28T00:20:46.930Z,99.30
2019-02-28T00:23:15.016Z,99.20
2019-02-28T00:25:43.113Z,99.30
2019-02-28T00:28:11.553Z,99.50
2019-02-28T00:30:40.722Z,99.40
2019-02-28T00:33:10.077Z,99.50
2019-02-28T00:35:38.503Z,99.50
2019-02-28T00:38:06.557Z,99.70
2019-02-28T00:40:34.565Z,99.70
2019-02-28T00:43:03.249Z,99.70
2019-02-28T00:45:36.310Z,99.90
2019-02-28T00:48:01.247Z,99.50
2019-02-28T00:50:29.429Z,99.60
2019-02-28T00:52:57.697Z,99.50
2019-02-28T00:55:26.071Z,99.60
2019-02-28T00:57:55.413Z,99.60
2019-02-28T01:00:24.044Z,99.60
2019-02-28T01:02:53.703Z,99.50
2019-02-28T01:05:22.122Z,99.40
2019-02-28T01:07:50.212Z,99.40
2019-02-28T01:10:18.605Z,99.60
2019-02-28T01:12:46.760Z,99.50
2019-02-28T01:15:14.964Z,99.80
2019-02-28T01:17:42.908Z,99.50
2019-02-28T01:20:14.988Z,99.50
2019-02-28T01:22:41.705Z,99.90
2019-02-28T01:25:09.926Z,99.70
2019-02-28T01:27:38.562Z,99.60
2019-02-28T01:30:07.770Z,99.60
2019-02-28T01:32:35.916Z,99.90
2019-02-28T01:35:06.737Z,99.50
2019-02-28T01:37:34.501Z,99.40
2019-02-28T01:40:04.520Z,99.30
2019-02-28T01:42:32.831Z,99.50
2019-02-28T01:45:01.169Z,99.50
2019-02-28T01:47:29.578Z,99.50
2019-02-28T01:49:58.743Z,99.20
2019-02-28T01:52:26.954Z,99.60
2019-02-28T01:54:55.156Z,99.30
2019-02-28T01:57:23.125Z,99.60
2019-02-28T01:59:52.894Z,99.40
2019-02-28T02:02:21.090Z,99.30
2019-02-28T02:04:49.145Z,99.20
2019-02-28T02:07:17.355Z,99.20
2019-02-28T02:09:46.122Z,99.30
2019-02-28T02:12:15.565Z,99.30
2019-02-28T02:14:45.623Z,99.30
2019-02-28T02:17:14.170Z,99.40
2019-02-28T02:19:42.852Z,99.20
2019-02-28T02:22:11.196Z,99.10
2019-02-28T02:24:39.282Z,99.10
2019-02-28T02:27:07.461Z,98.90
2019-02-28T02:29:36.320Z,98.70
2019-02-28T02:32:05.679Z,98.80
2019-02-28T02:34:33.710Z,99.00
2019-02-28T02:37:02.166Z,99.00
2019-02-28T02:39:30.779Z,99.10
2019-02-28T02:41:59.151Z,99.10
2019-02-28T02:44:31.845Z,98.90
2019-02-28T02:46:58.350Z,98.70
2019-02-28T02:49:26.472Z,98.70
2019-02-28T02:51:54.841Z,98.80
2019-02-28T02:54:23.216Z,98.70
2019-02-28T02:56:51.602Z,98.80
2019-02-28T02:59:19.955Z,98.80
2019-02-28T03:01:48.618Z,98.60
2019-02-28T03:04:23.047Z,98.30
2019-02-28T03:06:47.838Z,98.30
2019-02-28T03:09:15.942Z,98.20
2019-02-28T03:11:44.328Z,98.50
2019-02-28T03:14:16.503Z,98.60
2019-02-28T03:16:42.306Z,98.40
2019-02-28T03:19:10.377Z,98.60
2019-02-28T03:21:38.549Z,98.80
2019-02-28T03:24:06.506Z,98.90
2019-02-28T03:26:34.371Z,99.10
2019-02-28T03:29:07.534Z,99.10
2019-02-28T03:31:32.863Z,99.00
2019-02-28T03:34:10.077Z,99.30
2019-02-28T03:36:30.789Z,99.60
2019-02-28T03:38:59.005Z,99.70
2019-02-28T03:41:27.019Z,99.70
2019-02-28T03:43:55.363Z,99.90
2019-02-28T03:46:23.558Z,99.90
2019-02-28T03:48:51.527Z,99.90
2019-02-28T03:51:19.962Z,99.90
2019-02-28T03:53:55.589Z,99.70
2019-02-28T03:56:19.105Z,99.70
2019-02-28T03:58:47.499Z,98.70
2019-02-28T04:01:16.216Z,98.20
2019-02-28T04:03:44.545Z,98.50
2019-02-28T04:06:12.630Z,98.20
2019-02-28T04:08:40.598Z,98.30
2019-02-28T04:11:08.869Z,98.50
2019-02-28T04:13:37.234Z,98.70
2019-02-28T04:16:09.196Z,98.90
2019-02-28T04:18:44.128Z,99.00
2019-02-28T04:21:19.786Z,99.00
2019-02-28T04:23:52.874Z,99.00
2019-02-28T04:26:21.073Z,98.70
2019-02-28T04:28:53.280Z,98.90
2019-02-28T04:31:20.430Z,99.00
2019-02-28T04:33:56.181Z,99.10
2019-02-28T04:36:24.409Z,99.60
2019-02-28T04:38:52.569Z,99.70
2019-02-28T04:41:20.959Z,99.40
2019-02-28T04:43:49.542Z,99.70
2019-02-28T04:46:35.304Z,99.50
2019-02-28T04:49:03.244Z,99.50
2019-02-28T04:51:31.688Z,99.50
2019-02-28T04:53:59.630Z,99.70
2019-02-28T04:56:28.517Z,99.50
2019-02-28T04:58:59.489Z,99.60
2019-02-28T05:01:26.645Z,99.40
2019-02-28T05:03:54.687Z,99.40
2019-02-28T05:06:22.715Z,99.40
2019-02-28T05:08:50.871Z,99.60
2019-02-28T05:11:18.872Z,99.30
2019-02-28T05:13:48.749Z,99.20
2019-02-28T05:16:17.838Z,99.40
2019-02-28T05:18:46.174Z,99.20
2019-02-28T05:21:16.526Z,99.20
2019-02-28T05:23:44.269Z,99.50
2019-02-28T05:26:12.257Z,99.00
2019-02-28T05:28:41.414Z,99.00
2019-02-28T05:31:10.022Z,99.30
2019-02-28T05:33:41.839Z,99.30
2019-02-28T05:36:08.318Z,99.20
2019-02-28T05:38:36.615Z,99.00
2019-02-28T05:41:04.694Z,99.50
2019-02-28T05:43:32.927Z,99.10
2019-02-28T05:46:00.948Z,99.00
2019-02-28T05:48:28.890Z,99.10
2019-02-28T05:50:57.061Z,99.10
2019-02-28T05:53:25.014Z,99.10
2019-02-28T05:55:53.105Z,99.00
2019-02-28T05:58:21.786Z,98.80
2019-02-28T06:00:49.857Z,99.00
2019-02-28T06:03:18.250Z,98.80
2019-02-28T06:05:46.403Z,98.70
2019-02-28T06:08:15.020Z,98.60
2019-02-28T06:10:43.715Z,98.60
2019-02-28T06:13:11.804Z,98.70
2019-02-28T06:15:39.825Z,98.80
2019-02-28T06:18:07.910Z,99.00
2019-02-28T06:20:36.367Z,99.20
2019-02-28T06:23:06.315Z,99.10
2019-02-28T06:25:37.335Z,99.40
2019-02-28T06:28:05.416Z,99.30
2019-02-28T06:30:33.438Z,99.50
2019-02-28T06:33:01.538Z,99.70
2019-02-28T06:35:30.030Z,99.60
2019-02-28T06:37:58.595Z,99.60
2019-02-28T06:40:26.989Z,99.70
2019-02-28T06:42:55.929Z,99.40
2019-02-28T06:45:24.434Z,99.20
2019-02-28T06:47:52.438Z,99.10
2019-02-28T06:50:20.602Z,98.80
2019-02-28T06:52:48.908Z,98.60
2019-02-28T06:55:22.982Z,98.30
2019-02-28T06:57:51.148Z,98.00
2019-02-28T07:00:19.417Z,97.70
2019-02-28T07:02:47.298Z,97.40
2019-02-28T07:05:15.480Z,96.60
2019-02-28T07:07:45.649Z,95.00
2019-02-28T07:10:14.006Z,93.50
2019-02-28T07:12:42.654Z,92.60
2019-02-28T07:15:11.277Z,91.40
2019-02-28T07:17:42.527Z,90.90
2019-02-28T07:20:11.198Z,90.10
2019-02-28T07:22:40.173Z,89.00
2019-02-28T07:25:09.496Z,85.80
2019-02-28T07:27:38.753Z,82.30
2019-02-28T07:30:09.825Z,78.30
2019-02-28T07:32:37.878Z,74.60
2019-02-28T07:35:06.826Z,72.00
2019-02-28T07:37:35.181Z,69.70
2019-02-28T07:40:03.743Z,70.90
2019-02-28T07:42:33.653Z,68.00
2019-02-28T07:45:02.443Z,67.80
2019-02-28T07:47:30.618Z,65.60
2019-02-28T07:49:59.097Z,61.80
2019-02-28T07:52:32.369Z,60.50
2019-02-28T07:54:57.906Z,59.50
2019-02-28T07:57:26.054Z,62.40
2019-02-28T07:59:54.457Z,60.30
2019-02-28T08:02:22.864Z,59.50
2019-02-28T08:04:54.574Z,59.70
2019-02-28T08:07:21.405Z,59.00
2019-02-28T08:09:49.370Z,58.60
2019-02-28T08:12:17.551Z,57.80
2019-02-28T08:14:47.014Z,57.60
2019-02-28T08:17:16.041Z,58.30
2019-02-28T08:19:44.546Z,55.70
2019-02-28T08:22:12.798Z,54.50
2019-02-28T08:24:40.937Z,52.70
2019-02-28T08:27:09.561Z,51.40
2019-02-28T08:29:37.629Z,50.80
2019-02-28T08:32:07.986Z,50.50
2019-02-28T08:34:35.617Z,50.00
2019-02-28T08:37:03.707Z,48.10
2019-02-28T08:39:32.378Z,47.10
2019-02-28T08:42:04.354Z,47.00
2019-02-28T08:44:30.901Z,46.00
2019-02-28T08:46:59.294Z,44.20
2019-02-28T08:49:27.767Z,43.40
2019-02-28T08:51:56.130Z,41.60
2019-02-28T08:54:27.247Z,42.00
2019-02-28T08:56:54.363Z,41.40
2019-02-28T08:59:22.833Z,40.90
2019-02-28T09:02:03.536Z,40.40
2019-02-28T09:04:41.453Z,40.20
2019-02-28T09:07:17.094Z,39.60
2019-02-28T09:09:54.014Z,38.40
2019-02-28T09:12:29.979Z,38.00
2019-02-28T09:15:19.342Z,37.70
2019-02-28T09:17:59.474Z,37.30
2019-02-28T09:20:35.760Z,36.80
2019-02-28T09:23:12.042Z,36.70
2019-02-28T09:25:48.149Z,36.40
2019-02-28T09:28:25.155Z,36.20
2019-02-28T09:30:54.316Z,35.70
2019-02-28T09:33:32.184Z,35.80
2019-02-28T09:36:00.317Z,35.70
2019-02-28T09:38:28.583Z,36.30
2019-02-28T09:41:06.010Z,35.40
2019-02-28T09:43:34.550Z,35.70
2019-02-28T09:46:02.838Z,35.40
2019-02-28T09:48:33.919Z,35.60
2019-02-28T09:51:01.292Z,35.20
2019-02-28T09:53:29.651Z,34.80
2019-02-28T09:55:57.681Z,34.60
2019-02-28T09:58:28.921Z,34.20
2019-02-28T10:00:56.029Z,34.60
2019-02-28T10:03:24.355Z,35.00
2019-02-28T10:05:52.776Z,35.30
2019-02-28T10:08:21.781Z,35.50
2019-02-28T10:10:52.465Z,35.70
2019-02-28T10:13:20.280Z,35.40
2019-02-28T10:15:48.389Z,35.20
2019-02-28T10:18:16.600Z,34.90
2019-02-28T10:20:44.798Z,35.00
2019-02-28T10:23:12.926Z,36.50
2019-02-28T10:25:53.914Z,37.10
2019-02-28T10:28:22.561Z,37.30
2019-02-28T10:30:50.985Z,36.80
2019-02-28T10:33:19.025Z,38.20
2019-02-28T10:35:47.406Z,37.20
2019-02-28T10:38:15.510Z,39.10
2019-02-28T10:40:43.550Z,38.90
2019-02-28T10:43:15.087Z,38.50
2019-02-28T10:45:42.597Z,38.60
2019-02-28T10:48:10.869Z,38.60
2019-02-28T10:50:38.965Z,38.20
2019-02-28T10:53:07.611Z,38.60
2019-02-28T10:55:36.096Z,40.50
2019-02-28T10:58:04.158Z,44.60
2019-02-28T11:00:33.933Z,45.60
2019-02-28T11:03:02.152Z,46.10
2019-02-28T11:05:31.650Z,50.10
2019-02-28T11:08:00.713Z,49.70
2019-02-28T11:10:36.755Z,47.50
2019-02-28T11:13:07.470Z,46.50
2019-02-28T11:15:35.429Z,45.80
2019-02-28T11:18:08.499Z,47.30
2019-02-28T11:20:34.714Z,47.60
2019-02-28T11:23:03.396Z,46.70
2019-02-28T11:25:34.550Z,47.20
2019-02-28T11:28:02.091Z,48.80
2019-02-28T11:30:30.694Z,50.10
2019-02-28T11:33:03.073Z,52.60
2019-02-28T11:35:30.415Z,54.60
2019-02-28T11:37:58.735Z,54.50
2019-02-28T11:40:28.738Z,57.00
2019-02-28T11:42:59.416Z,59.60
2019-02-28T11:45:27.798Z,64.40
2019-02-28T11:47:57.144Z,62.80
2019-02-28T11:50:25.614Z,60.90
2019-02-28T11:52:53.837Z,61.20
2019-02-28T11:55:21.934Z,58.20
2019-02-28T11:57:50.513Z,55.30
2019-02-28T12:00:24.547Z,56.50
2019-02-28T12:02:53.687Z,57.80
2019-02-28T12:05:23.510Z,58.00
2019-02-28T12:07:52.117Z,58.10
2019-02-28T12:10:20.213Z,60.00
2019-02-28T12:12:48.593Z,59.30
2019-02-28T12:15:17.444Z,59.20
2019-02-28T12:17:45.950Z,58.50
2019-02-28T12:20:14.045Z,58.40
2019-02-28T12:22:43.613Z,58.90
2019-02-28T12:25:14.148Z,63.90
2019-02-28T12:27:42.361Z,72.40
2019-02-28T12:30:13.977Z,73.00
2019-02-28T12:32:43.342Z,74.40
2019-02-28T12:35:12.211Z,75.10
2019-02-28T12:37:40.675Z,74.50
2019-02-28T12:40:11.452Z,76.30
2019-02-28T12:42:39.582Z,75.80
2019-02-28T12:45:11.843Z,78.70
2019-02-28T12:47:41.582Z,79.40
2019-02-28T12:50:10.825Z,80.60
2019-02-28T12:52:39.006Z,81.10
2019-02-28T12:55:08.988Z,82.00
2019-02-28T12:57:37.506Z,81.40
2019-02-28T13:00:07.719Z,81.20
2019-02-28T13:02:36.118Z,79.80
2019-02-28T13:05:04.739Z,80.40
2019-02-28T13:07:33.896Z,81.60
2019-02-28T13:10:04.012Z,81.20
2019-02-28T13:12:32.618Z,80.50
2019-02-28T13:15:01.099Z,78.50
2019-02-28T13:17:31.599Z,75.80
2019-02-28T13:19:59.606Z,77.60
2019-02-28T13:22:27.750Z,74.20
2019-02-28T13:24:56.117Z,77.00
2019-02-28T13:27:24.502Z,75.80
2019-02-28T13:29:53.310Z,74.10
2019-02-28T13:32:21.873Z,73.80
2019-02-28T13:34:50.565Z,73.30
2019-02-28T14:14:27.048Z,52.00
2019-02-28T14:16:54.742Z,55.40
2019-02-28T14:19:22.448Z,60.20
2019-02-28T14:21:50.149Z,65.20
2019-02-28T14:24:17.830Z,68.60
2019-02-28T14:26:46.590Z,70.60
2019-02-28T14:29:15.133Z,70.80
2019-02-28T14:31:42.855Z,72.80
2019-02-28T14:34:10.558Z,73.50
2019-02-28T14:36:41.802Z,73.20
2019-02-28T14:39:11.180Z,72.50
2019-02-28T14:41:38.887Z,74.10
2019-02-28T14:44:06.598Z,73.30
2019-02-28T14:46:34.829Z,72.00
2019-02-28T14:49:02.801Z,71.90
2019-02-28T14:51:30.493Z,71.80
2019-02-28T14:53:58.157Z,72.20
2019-02-28T14:56:25.898Z,71.90
2019-02-28T14:58:56.071Z,72.00
2019-02-28T15:01:23.136Z,72.50
2019-02-28T15:03:50.929Z,72.70
2019-02-28T15:06:18.632Z,72.90
2019-02-28T15:08:47.369Z,73.00
2019-02-28T15:11:16.163Z,72.80
2019-02-28T15:13:44.410Z,73.20
2019-02-28T15:16:12.069Z,73.70
2019-02-28T15:18:44.352Z,73.40
2019-02-28T15:21:11.743Z,73.50
2019-02-28T15:23:39.432Z,72.70
2019-02-28T15:26:08.164Z,74.20
2019-02-28T15:28:35.829Z,73.50
2019-02-28T15:31:05.728Z,74.00
2019-02-28T15:33:33.123Z,74.60
2019-02-28T15:36:00.814Z,73.90
2019-02-28T15:38:28.510Z,74.20
2019-02-28T15:40:58.777Z,73.20
2019-02-28T15:43:26.209Z,73.00
2019-02-28T15:45:54.291Z,72.90
2019-02-28T15:48:22.499Z,72.90
2019-02-28T15:50:51.684Z,73.70
2019-02-28T15:53:20.181Z,73.80
2019-02-28T15:55:48.218Z,74.20
2019-02-28T15:58:16.659Z,74.40
2019-02-28T16:00:45.607Z,74.10
2019-02-28T16:03:16.633Z,72.30
2019-02-28T16:05:53.470Z,70.50
2019-02-28T16:08:21.701Z,70.20
2019-02-28T16:10:53.507Z,70.30
2019-02-28T16:13:19.542Z,70.90
2019-02-28T16:15:50.321Z,71.20
2019-02-28T16:18:18.186Z,71.60
2019-02-28T16:20:46.358Z,72.20
2019-02-28T16:23:14.746Z,72.40
2019-02-28T16:25:42.842Z,72.60
2019-02-28T16:28:11.071Z,72.00
2019-02-28T16:30:39.621Z,72.30
2019-02-28T16:33:07.748Z,73.10
2019-02-28T16:35:35.721Z,73.50
2019-02-28T16:38:06.449Z,73.90
2019-02-28T16:40:34.035Z,73.50
2019-02-28T16:43:02.418Z,74.50
2019-02-28T16:45:33.741Z,75.00
2019-02-28T16:48:05.494Z,75.30
2019-02-28T16:50:33.592Z,75.60
2019-02-28T16:53:01.530Z,76.00
2019-02-28T16:55:31.015Z,76.40
2019-02-28T16:57:59.418Z,76.80
2019-02-28T17:00:28.430Z,76.50
2019-02-28T17:02:57.111Z,77.20
2019-02-28T17:05:28.023Z,77.20
2019-02-28T17:07:55.039Z,77.70
2019-02-28T17:10:28.366Z,77.60
2019-02-28T17:13:17.222Z,78.00
2019-02-28T17:16:01.776Z,77.90
2019-02-28T17:18:31.878Z,78.20
2019-02-28T17:21:00.361Z,78.90
2019-02-28T17:23:28.710Z,79.00
2019-02-28T17:25:57.719Z,79.10
2019-02-28T17:28:49.833Z,79.10
2019-02-28T17:31:31.451Z,78.90
2019-02-28T17:34:00.945Z,79.00
2019-02-28T17:36:30.226Z,79.30
2019-02-28T17:38:58.754Z,78.80
2019-02-28T17:41:27.473Z,78.80
2019-02-28T17:44:39.605Z,79.20
2019-02-28T17:47:33.034Z,79.50
2019-02-28T17:50:27.426Z,79.70
2019-02-28T17:53:58.875Z,80.10
2019-02-28T17:57:05.767Z,80.30
2019-02-28T17:59:54.864Z,80.30
2019-02-28T18:03:01.593Z,80.40
2019-02-28T18:06:13.686Z,80.40
2019-02-28T18:09:13.695Z,80.50
2019-02-28T18:12:29.429Z,80.60
2019-02-28T18:15:26.128Z,80.20
2019-02-28T18:18:29.824Z,80.50
2019-02-28T18:21:44.542Z,80.80
2019-02-28T18:24:42.711Z,80.50
2019-02-28T18:27:53.868Z,80.60
2019-02-28T18:30:49.484Z,80.70
2019-02-28T18:33:19.795Z,81.00
2019-02-28T18:35:48.391Z,81.00
2019-02-28T18:38:17.589Z,81.30
2019-02-28T18:40:48.669Z,81.50
2019-02-28T18:43:19.895Z,81.40
2019-02-28T18:45:53.546Z,81.70
2019-02-28T18:48:21.435Z,81.90
2019-02-28T18:50:49.731Z,81.90
2019-02-28T18:53:18.390Z,82.20
2019-02-28T18:55:47.250Z,82.00
2019-02-28T18:58:15.962Z,82.20
2019-02-28T19:00:44.440Z,82.50
2019-02-28T19:03:13.360Z,82.60
2019-02-28T19:05:41.938Z,82.90
2019-02-28T19:08:11.264Z,83.30
2019-02-28T19:10:40.027Z,83.60
2019-02-28T19:13:08.485Z,84.00
2019-02-28T19:15:37.277Z,83.90
2019-02-28T19:18:07.864Z,84.10
2019-02-28T19:20:36.437Z,84.10
2019-02-28T19:23:05.049Z,83.90
2019-02-28T19:25:33.173Z,84.30
2019-02-28T19:28:02.141Z,84.50
2019-02-28T19:30:31.055Z,84.80
2019-02-28T19:32:59.669Z,84.90
2019-02-28T19:35:27.801Z,85.00
2019-02-28T19:37:56.417Z,85.00
2019-02-28T19:40:24.756Z,85.00
2019-02-28T19:42:52.605Z,85.10
2019-02-28T19:45:21.087Z,85.10
2019-02-28T19:47:49.418Z,84.90
2019-02-28T19:50:18.005Z,85.30
2019-02-28T19:52:46.090Z,84.90
2019-02-28T19:55:14.941Z,85.00
2019-02-28T19:57:42.969Z,85.30
2019-02-28T20:00:15.230Z,85.40
2019-02-28T20:02:43.609Z,84.90
2019-02-28T20:05:12.377Z,84.70
2019-02-28T20:07:40.573Z,84.70
2019-02-28T20:10:10.766Z,84.80
2019-02-28T20:12:38.889Z,85.00
2019-02-28T20:15:07.520Z,84.20
2019-02-28T20:17:35.750Z,84.50
2019-02-28T20:20:05.733Z,84.40
2019-02-28T20:22:34.097Z,84.40
2019-02-28T20:25:02.197Z,84.30
2019-02-28T20:27:30.333Z,84.20
2019-02-28T20:29:58.414Z,84.20
2019-02-28T20:32:27.153Z,84.10
2019-02-28T20:34:55.203Z,84.30
2019-02-28T20:37:23.610Z,84.10
2019-02-28T20:39:52.254Z,83.90
2019-02-28T20:42:20.302Z,83.90
2019-02-28T20:44:48.513Z,84.40
2019-02-28T20:47:16.752Z,84.30
2019-02-28T20:49:44.849Z,84.30
2019-02-28T20:52:13.268Z,84.60
2019-02-28T20:54:41.274Z,84.80
2019-02-28T20:57:09.465Z,84.90
2019-02-28T20:59:37.428Z,84.80
2019-02-28T21:02:05.698Z,84.80
2019-02-28T21:04:33.868Z,85.00
2019-02-28T21:07:02.242Z,85.00
2019-02-28T21:09:30.653Z,85.30
2019-02-28T21:11:58.719Z,85.60
2019-02-28T21:14:26.808Z,86.00
2019-02-28T21:16:54.858Z,86.30
2019-02-28T21:19:23.134Z,86.70
2019-02-28T21:21:51.311Z,87.00
2019-02-28T21:24:19.356Z,87.20
2019-02-28T21:26:48.061Z,86.90
2019-02-28T21:29:16.135Z,86.70
2019-02-28T21:31:44.316Z,86.80
2019-02-28T21:34:12.631Z,86.80
2019-02-28T21:36:40.753Z,86.70
2019-02-28T21:39:09.074Z,86.90
2019-02-28T21:41:37.699Z,87.20
2019-02-28T21:44:05.779Z,87.10
2019-02-28T21:46:34.508Z,87.30
2019-02-28T21:49:03.205Z,87.30
2019-02-28T21:51:31.357Z,87.30
2019-02-28T21:53:59.322Z,87.50
2019-02-28T21:56:27.469Z,87.30
2019-02-28T21:58:55.774Z,87.10
2019-02-28T22:01:24.130Z,87.10
2019-02-28T22:03:55.058Z,87.20
2019-02-28T22:06:23.380Z,86.80
2019-02-28T22:08:51.505Z,86.80
2019-02-28T22:11:19.833Z,86.50
2019-02-28T22:13:47.859Z,86.80
2019-02-28T22:16:16.573Z,86.70
2019-02-28T22:18:44.964Z,86.80
2019-02-28T22:21:13.013Z,87.00
2019-02-28T22:23:41.386Z,87.30
2019-02-28T22:26:09.762Z,87.60
2019-02-28T22:28:37.854Z,87.90
2019-02-28T22:31:19.907Z,88.00
2019-02-28T22:34:08.316Z,88.20
2019-02-28T22:36:39.255Z,88.20
2019-02-28T22:39:08.301Z,88.40
2019-02-28T22:41:36.384Z,88.50
2019-02-28T22:44:04.942Z,88.50
2019-02-28T22:46:33.666Z,88.50
2019-02-28T22:49:02.026Z,88.60
2019-02-28T22:51:30.113Z,88.40
2019-02-28T22:53:58.770Z,88.60
2019-02-28T22:56:27.277Z,88.70
2019-02-28T22:58:55.562Z,88.90
2019-02-28T23:01:25.000Z,88.80
2019-02-28T23:03:53.513Z,89.10
2019-02-28T23:06:21.681Z,89.10
2019-02-28T23:08:49.695Z,88.90
2019-02-28T23:11:18.062Z,89.10
2019-02-28T23:13:46.132Z,89.40
2019-02-28T23:16:15.182Z,90.00
2019-02-28T23:18:43.192Z,89.70
2019-02-28T23:21:11.687Z,89.90
2019-02-28T23:23:40.145Z,90.10
2019-02-28T23:26:12.877Z,90.30
2019-02-28T23:28:44.579Z,90.40
2019-02-28T23:31:56.880Z,90.50
2019-02-28T23:34:31.435Z,90.60
2019-02-28T23:36:59.496Z,90.20
2019-02-28T23:39:28.172Z,90.00
2019-02-28T23:41:56.588Z,89.80
2019-02-28T23:44:24.949Z,90.10
2019-02-28T23:46:53.036Z,89.80
2019-02-28T23:49:21.678Z,90.00
2019-02-28T23:51:49.749Z,90.20
2019-02-28T23:54:18.225Z,91.00
2019-02-28T23:56:46.802Z,92.20
2019-02-28T23:59:14.914Z,92.40
